createdAt,value
2023-05-14T00:00:28.986Z,14.30
2023-05-14T00:02:55.527Z,14.20
2023-05-14T00:05:22.912Z,11.07
2023-05-14T00:07:49.190Z,12.37
2023-05-14T00:10:15.585Z,13.83
2023-05-14T00:12:41.908Z,11.60
2023-05-14T00:15:08.548Z,12.50
2023-05-14T00:17:34.816Z,14.63
2023-05-14T00:20:01.274Z,13.27
2023-05-14T00:22:27.863Z,12.37
2023-05-14T00:24:54.247Z,12.93
2023-05-14T00:27:20.508Z,11.47
2023-05-14T00:29:46.780Z,11.83
2023-05-14T00:32:13.082Z,12.90
2023-05-14T00:34:39.331Z,11.57
2023-05-14T00:37:05.619Z,12.40
2023-05-14T00:39:31.917Z,13.90
2023-05-14T00:41:58.792Z,14.23
2023-05-14T00:44:25.083Z,14.53
2023-05-14T00:46:52.350Z,15.13
2023-05-14T00:49:18.762Z,12.93
2023-05-14T00:51:48.055Z,12.40
2023-05-14T00:54:15.992Z,12.53
2023-05-14T00:56:44.943Z,12.17
2023-05-14T00:59:11.193Z,12.93
2023-05-14T01:01:37.701Z,12.90
2023-05-14T01:04:04.267Z,13.30
2023-05-14T01:06:43.730Z,11.90
2023-05-14T01:09:15.757Z,14.70
2023-05-14T01:11:52.557Z,11.70
2023-05-14T01:14:31.363Z,17.20
2023-05-14T01:16:58.761Z,16.77
2023-05-14T01:19:39.593Z,13.40
2023-05-14T01:22:06.231Z,13.07
2023-05-14T01:24:33.107Z,13.43
2023-05-14T01:27:05.916Z,15.00
2023-05-14T01:29:33.684Z,12.03
2023-05-14T01:32:00.601Z,13.90
2023-05-14T01:34:28.338Z,12.27
2023-05-14T01:36:55.732Z,11.20
2023-05-14T01:39:23.016Z,12.90
2023-05-14T01:41:49.740Z,12.27
2023-05-14T01:44:16.249Z,11.27
2023-05-14T01:46:42.531Z,12.10
2023-05-14T01:49:08.876Z,13.03
2023-05-14T01:51:35.277Z,11.17
2023-05-14T01:54:01.587Z,11.40
2023-05-14T01:56:27.842Z,11.70
2023-05-14T01:58:55.798Z,11.50
2023-05-14T02:01:22.267Z,10.67
2023-05-14T02:03:48.662Z,8.83
2023-05-14T02:06:14.938Z,10.47
2023-05-14T02:08:41.198Z,8.70
2023-05-14T02:11:07.548Z,9.83
2023-05-14T02:13:33.841Z,8.77
2023-05-14T02:16:00.135Z,13.23
2023-05-14T02:18:26.533Z,8.80
2023-05-14T02:20:52.843Z,9.43
2023-05-14T02:23:20.624Z,11.47
2023-05-14T02:25:52.043Z,8.73
2023-05-14T02:28:18.288Z,10.73
2023-05-14T02:30:44.538Z,13.27
2023-05-14T02:33:10.878Z,9.77
2023-05-14T02:35:37.374Z,13.30
2023-05-14T02:38:03.800Z,7.80
2023-05-14T02:40:30.116Z,9.97
2023-05-14T02:42:56.364Z,9.37
2023-05-14T02:45:22.688Z,9.77
2023-05-14T02:47:48.995Z,11.17
2023-05-14T02:50:15.298Z,12.43
2023-05-14T02:52:41.577Z,13.40
2023-05-14T02:55:08.176Z,11.17
2023-05-14T02:57:34.468Z,8.30
2023-05-14T03:00:00.712Z,8.63
2023-05-14T03:02:27.644Z,7.70
2023-05-14T03:04:54.280Z,9.00
2023-05-14T03:07:20.561Z,9.67
2023-05-14T03:09:46.834Z,9.60
2023-05-14T03:12:14.309Z,7.03
2023-05-14T03:14:40.624Z,7.57
2023-05-14T03:17:06.954Z,8.20
2023-05-14T03:19:33.215Z,9.97
2023-05-14T03:21:59.541Z,9.47
2023-05-14T03:24:25.853Z,9.53
2023-05-14T03:26:52.149Z,8.23
2023-05-14T03:29:18.551Z,8.30
2023-05-14T03:31:44.948Z,12.33
2023-05-14T03:34:11.232Z,8.80
2023-05-14T03:36:38.972Z,8.67
2023-05-14T03:39:06.889Z,7.53
2023-05-14T03:41:33.289Z,9.53
2023-05-14T03:43:59.508Z,12.13
2023-05-14T03:46:25.792Z,7.57
2023-05-14T03:48:52.042Z,11.20
2023-05-14T03:51:18.408Z,10.93
2023-05-14T03:53:44.961Z,8.97
2023-05-14T03:56:11.222Z,12.47
2023-05-14T03:58:37.525Z,12.07
2023-05-14T04:01:03.823Z,10.93
2023-05-14T04:03:30.192Z,9.37
2023-05-14T04:05:57.201Z,11.90
2023-05-14T04:08:23.881Z,12.97
2023-05-14T04:10:50.373Z,11.67
2023-05-14T04:13:16.683Z,9.47
2023-05-14T04:15:42.979Z,11.83
2023-05-14T04:18:09.379Z,9.10
2023-05-14T04:20:35.750Z,11.50
2023-05-14T04:23:02.007Z,11.53
2023-05-14T04:25:28.455Z,9.30
2023-05-14T04:27:54.677Z,10.70
2023-05-14T04:30:21.050Z,12.33
2023-05-14T04:32:47.513Z,13.03
2023-05-14T04:35:13.915Z,9.73
2023-05-14T04:37:40.485Z,11.20
2023-05-14T04:40:08.619Z,11.80
2023-05-14T04:42:34.892Z,11.93
2023-05-14T04:45:01.209Z,12.33
2023-05-14T04:47:27.611Z,11.23
2023-05-14T04:49:53.870Z,11.63
2023-05-14T04:52:20.155Z,13.63
2023-05-14T04:54:46.474Z,11.07
2023-05-14T04:57:12.811Z,11.73
2023-05-14T04:59:39.105Z,9.43
2023-05-14T05:02:05.345Z,8.77
2023-05-14T05:04:31.647Z,9.77
2023-05-14T05:06:57.912Z,8.70
2023-05-14T05:09:24.342Z,15.30
2023-05-14T05:11:50.655Z,10.57
2023-05-14T05:14:17.221Z,11.13
2023-05-14T05:16:43.539Z,13.10
2023-05-14T05:19:09.844Z,11.07
2023-05-14T05:21:36.405Z,11.60
2023-05-14T05:24:02.676Z,9.97
2023-05-14T05:26:28.924Z,10.57
2023-05-14T05:28:55.179Z,9.60
2023-05-14T05:31:21.521Z,12.20
2023-05-14T05:33:48.105Z,9.50
2023-05-14T05:36:14.381Z,12.90
2023-05-14T05:38:40.631Z,10.00
2023-05-14T05:41:07.536Z,8.70
2023-05-14T05:43:34.150Z,10.73
2023-05-14T05:46:00.938Z,8.73
2023-05-14T05:48:27.178Z,12.20
2023-05-14T05:50:53.908Z,8.63
2023-05-14T05:53:20.283Z,9.47
2023-05-14T05:55:46.550Z,11.00
2023-05-14T05:58:15.686Z,10.97
2023-05-14T06:00:41.916Z,10.60
2023-05-14T06:03:08.184Z,8.40
2023-05-14T06:05:34.505Z,11.10
2023-05-14T06:08:00.808Z,9.07
2023-05-14T06:10:27.079Z,10.70
2023-05-14T06:12:53.721Z,9.17
2023-05-14T06:15:20.074Z,11.13
2023-05-14T06:17:46.523Z,9.37
2023-05-14T06:20:12.911Z,10.00
2023-05-14T06:22:39.249Z,8.47
2023-05-14T06:25:05.691Z,9.77
2023-05-14T06:27:31.958Z,8.77
2023-05-14T06:29:58.182Z,10.87
2023-05-14T06:32:24.590Z,12.30
2023-05-14T06:34:51.032Z,8.67
2023-05-14T06:37:17.299Z,6.33
2023-05-14T06:39:49.796Z,12.90
2023-05-14T06:42:16.505Z,10.43
2023-05-14T06:44:43.063Z,10.53
2023-05-14T06:47:09.310Z,7.57
2023-05-14T06:49:36.042Z,11.73
2023-05-14T06:52:02.431Z,8.97
2023-05-14T06:54:28.703Z,10.30
2023-05-14T06:56:55.004Z,8.30
2023-05-14T06:59:21.283Z,10.37
2023-05-14T07:01:47.593Z,7.87
2023-05-14T07:04:13.883Z,8.30
2023-05-14T07:06:40.494Z,8.30
2023-05-14T07:09:10.625Z,8.43
2023-05-14T07:11:36.857Z,7.27
2023-05-14T07:14:03.097Z,9.23
2023-05-14T07:16:29.410Z,10.87
2023-05-14T07:18:55.736Z,8.73
2023-05-14T07:21:22.055Z,7.37
2023-05-14T07:23:48.316Z,11.60
2023-05-14T07:26:14.575Z,8.67
2023-05-14T07:28:40.979Z,9.60
2023-05-14T07:31:09.081Z,9.23
2023-05-14T07:33:36.329Z,9.07
2023-05-14T07:36:02.628Z,7.13
2023-05-14T07:38:29.103Z,7.07
2023-05-14T07:40:56.166Z,7.43
2023-05-14T07:43:22.462Z,8.77
2023-05-14T07:45:48.737Z,7.10
2023-05-14T07:48:15.205Z,5.70
2023-05-14T07:50:41.558Z,6.60
2023-05-14T07:53:08.018Z,6.63
2023-05-14T07:55:34.330Z,4.97
2023-05-14T07:58:00.871Z,5.23
2023-05-14T08:00:27.272Z,7.90
2023-05-14T08:02:54.842Z,9.67
2023-05-14T08:05:21.588Z,5.97
2023-05-14T08:07:48.021Z,9.90
2023-05-14T08:10:14.321Z,9.23
2023-05-14T08:12:40.754Z,7.57
2023-05-14T08:15:07.758Z,5.87
2023-05-14T08:17:34.096Z,4.97
2023-05-14T08:20:00.446Z,7.07
2023-05-14T08:22:26.690Z,10.93
2023-05-14T08:24:54.014Z,6.83
2023-05-14T08:27:21.538Z,8.07
2023-05-14T08:29:47.784Z,8.03
2023-05-14T08:32:22.933Z,5.80
2023-05-14T08:34:50.712Z,4.80
2023-05-14T08:37:17.032Z,4.70
2023-05-14T08:39:43.500Z,5.23
2023-05-14T08:42:12.071Z,4.00
2023-05-14T08:44:39.555Z,7.17
2023-05-14T08:47:05.996Z,5.80
2023-05-14T08:49:46.708Z,5.33
2023-05-14T08:52:13.167Z,5.17
2023-05-14T08:54:42.350Z,7.57
2023-05-14T08:57:09.976Z,4.83
2023-05-14T08:59:36.332Z,5.97
2023-05-14T09:02:03.167Z,5.93
2023-05-14T09:04:30.012Z,8.47
2023-05-14T09:06:56.468Z,4.57
2023-05-14T09:09:23.165Z,6.43
2023-05-14T09:11:50.185Z,4.80
2023-05-14T09:14:16.502Z,8.77
2023-05-14T09:16:45.099Z,5.47
2023-05-14T09:19:12.431Z,4.93
2023-05-14T09:21:38.818Z,4.17
2023-05-14T09:24:05.249Z,7.07
2023-05-14T09:26:32.021Z,4.63
2023-05-14T09:29:04.945Z,5.07
2023-05-14T09:31:33.059Z,4.47
2023-05-14T09:33:59.607Z,5.03
2023-05-14T09:36:29.569Z,5.13
2023-05-14T09:39:00.583Z,5.40
2023-05-14T09:41:26.829Z,7.50
2023-05-14T09:43:53.260Z,5.20
2023-05-14T09:46:19.504Z,6.53
2023-05-14T09:48:46.064Z,5.63
2023-05-14T09:51:13.646Z,4.53
2023-05-14T09:53:41.266Z,4.53
2023-05-14T09:56:07.605Z,5.17
2023-05-14T09:58:33.884Z,6.27
2023-05-14T10:01:01.728Z,7.77
2023-05-14T10:03:29.807Z,5.40
2023-05-14T10:06:01.177Z,7.53
2023-05-14T10:08:34.321Z,4.47
2023-05-14T10:11:01.792Z,6.20
2023-05-14T10:13:31.095Z,6.67
2023-05-14T10:16:06.328Z,5.70
2023-05-14T10:18:36.051Z,4.53
2023-05-14T10:21:04.754Z,4.33
2023-05-14T10:23:31.238Z,6.43
2023-05-14T10:25:58.450Z,9.47
2023-05-14T10:28:24.779Z,8.03
2023-05-14T10:30:51.452Z,5.53
2023-05-14T10:33:18.689Z,6.30
2023-05-14T10:35:51.281Z,4.70
2023-05-14T10:38:17.577Z,5.07
2023-05-14T10:40:43.873Z,6.20
2023-05-14T10:43:11.322Z,8.80
2023-05-14T10:45:37.695Z,5.43
2023-05-14T10:48:04.172Z,6.37
2023-05-14T10:50:30.524Z,5.87
2023-05-14T10:52:57.491Z,10.47
2023-05-14T10:55:24.914Z,6.50
2023-05-14T10:57:52.236Z,4.33
2023-05-14T11:00:18.568Z,7.03
2023-05-14T11:02:45.122Z,6.47
2023-05-14T11:05:15.337Z,4.40
2023-05-14T11:07:42.228Z,4.97
2023-05-14T11:10:09.432Z,5.73
2023-05-14T11:12:36.712Z,9.73
2023-05-14T11:15:04.256Z,5.50
2023-05-14T11:17:31.749Z,5.53
2023-05-14T11:19:58.845Z,6.33
2023-05-14T11:22:25.347Z,6.60
2023-05-14T11:24:51.631Z,5.60
2023-05-14T11:27:18.503Z,4.23
2023-05-14T11:29:46.099Z,8.00
2023-05-14T11:32:13.078Z,6.37
2023-05-14T11:34:39.472Z,7.33
2023-05-14T11:37:06.697Z,5.17
2023-05-14T11:39:33.391Z,5.30
2023-05-14T11:42:02.145Z,6.43
2023-05-14T11:44:28.462Z,4.73
2023-05-14T11:46:55.715Z,6.57
2023-05-14T11:49:23.737Z,5.40
2023-05-14T11:51:50.545Z,6.17
2023-05-14T11:54:16.897Z,5.23
2023-05-14T11:56:43.143Z,6.10
2023-05-14T11:59:10.761Z,6.10
2023-05-14T12:01:37.447Z,5.77
2023-05-14T12:04:04.687Z,7.10
2023-05-14T12:06:32.194Z,6.13
2023-05-14T12:08:58.506Z,5.77
2023-05-14T12:11:24.748Z,7.80
2023-05-14T12:13:52.683Z,5.87
2023-05-14T12:16:20.695Z,6.30
2023-05-14T12:18:46.973Z,6.90
2023-05-14T12:21:13.309Z,7.43
2023-05-14T12:23:39.715Z,7.67
2023-05-14T12:26:07.066Z,7.80
2023-05-14T12:28:35.346Z,4.60
2023-05-14T12:31:03.633Z,5.80
2023-05-14T12:33:29.928Z,5.90
2023-05-14T12:36:09.934Z,6.50
2023-05-14T12:38:41.274Z,7.07
2023-05-14T12:41:07.587Z,9.13
2023-05-14T12:43:33.824Z,4.93
2023-05-14T12:46:00.145Z,5.90
2023-05-14T12:48:26.574Z,6.97
2023-05-14T12:50:52.841Z,6.87
2023-05-14T12:53:19.135Z,7.63
2023-05-14T12:55:45.461Z,4.97
2023-05-14T12:58:11.710Z,8.57
2023-05-14T13:00:38.094Z,5.73
2023-05-14T13:03:04.423Z,6.63
2023-05-14T13:05:30.824Z,11.03
2023-05-14T13:07:58.730Z,6.23
2023-05-14T13:10:24.982Z,8.57
2023-05-14T13:12:52.642Z,6.63
2023-05-14T13:15:18.917Z,7.73
2023-05-14T13:17:45.210Z,5.03
2023-05-14T13:20:11.594Z,3.77
2023-05-14T13:22:37.929Z,8.03
2023-05-14T13:25:04.899Z,6.10
2023-05-14T13:30:23.089Z,7.13
2023-05-14T13:32:49.425Z,4.93
2023-05-14T13:35:15.712Z,4.87
2023-05-14T13:37:45.103Z,6.07
2023-05-14T13:40:11.683Z,5.93
2023-05-14T13:42:39.780Z,6.23
2023-05-14T13:45:06.427Z,7.77
2023-05-14T13:47:33.555Z,6.43
2023-05-14T13:49:59.856Z,5.07
2023-05-14T13:52:26.564Z,7.03
2023-05-14T13:54:53.174Z,10.23
2023-05-14T13:57:19.655Z,10.23
2023-05-14T13:59:46.228Z,8.17
2023-05-14T14:02:12.518Z,5.00
2023-05-14T14:04:38.822Z,6.13
2023-05-14T14:07:05.071Z,6.57
2023-05-14T14:09:35.096Z,5.17
2023-05-14T14:12:03.491Z,5.80
2023-05-14T14:14:29.825Z,6.03
2023-05-14T14:16:56.090Z,6.73
2023-05-14T14:19:22.876Z,8.10
2023-05-14T14:24:20.479Z,5.87
2023-05-14T14:26:46.780Z,7.53
2023-05-14T14:29:13.096Z,8.00
2023-05-14T14:31:39.434Z,5.33
2023-05-14T14:34:06.095Z,7.20
2023-05-14T14:36:32.345Z,7.40
2023-05-14T14:38:58.638Z,9.87
2023-05-14T14:41:24.892Z,6.47
2023-05-14T14:43:51.172Z,5.57
2023-05-14T14:46:17.445Z,4.33
2023-05-14T14:48:44.009Z,7.27
2023-05-14T14:51:10.324Z,9.80
2023-05-14T14:53:37.164Z,6.77
2023-05-14T14:56:03.975Z,5.80
2023-05-14T14:58:31.036Z,6.57
2023-05-14T15:00:58.021Z,4.70
2023-05-14T15:03:24.823Z,5.70
2023-05-14T15:05:53.242Z,5.77
2023-05-14T15:08:20.819Z,6.27
2023-05-14T15:10:47.113Z,5.93
2023-05-14T15:13:13.374Z,9.47
2023-05-14T15:15:39.636Z,6.23
2023-05-14T15:18:06.023Z,4.87
2023-05-14T15:20:32.339Z,5.27
2023-05-14T15:22:58.654Z,6.13
2023-05-14T15:25:25.372Z,5.40
2023-05-14T15:27:51.784Z,5.07
2023-05-14T15:30:18.917Z,4.73
2023-05-14T15:32:45.996Z,6.20
2023-05-14T15:35:12.557Z,5.80
2023-05-14T15:37:39.958Z,4.50
2023-05-14T15:40:10.346Z,4.53
2023-05-14T15:42:37.361Z,4.93
2023-05-14T15:45:03.994Z,7.33
2023-05-14T15:47:30.383Z,5.97
2023-05-14T15:49:56.725Z,5.33
2023-05-14T15:52:23.016Z,3.93
2023-05-14T15:54:49.548Z,5.63
2023-05-14T15:57:17.823Z,6.87
2023-05-14T15:59:46.245Z,6.63
2023-05-14T16:02:12.653Z,7.27
2023-05-14T16:04:38.903Z,3.20
2023-05-14T16:07:08.093Z,3.13
2023-05-14T16:09:35.734Z,4.63
2023-05-14T16:12:02.035Z,6.63
2023-05-14T16:14:28.282Z,4.00
2023-05-14T16:16:54.759Z,7.57
2023-05-14T16:19:21.096Z,4.77
2023-05-14T16:21:47.483Z,4.17
2023-05-14T16:24:13.729Z,5.53
2023-05-14T16:26:40.070Z,6.03
2023-05-14T16:29:06.508Z,3.77
2023-05-14T16:31:32.767Z,7.40
2023-05-14T16:33:59.233Z,8.13
2023-05-14T16:36:26.515Z,6.07
2023-05-14T16:39:06.914Z,7.53
2023-05-14T16:41:34.762Z,4.27
2023-05-14T16:44:01.119Z,3.67
2023-05-14T16:46:29.273Z,4.40
2023-05-14T16:48:55.816Z,4.93
2023-05-14T16:51:22.316Z,8.90
2023-05-14T16:53:48.575Z,6.50
2023-05-14T16:56:14.805Z,4.40
2023-05-14T16:58:41.032Z,5.30
2023-05-14T17:01:09.647Z,4.73
2023-05-14T17:03:36.775Z,6.07
2023-05-14T17:06:03.176Z,5.47
2023-05-14T17:08:33.375Z,6.70
2023-05-14T17:10:59.648Z,7.27
2023-05-14T17:13:25.963Z,7.43
2023-05-14T17:15:52.231Z,4.67
2023-05-14T17:18:18.518Z,6.70
2023-05-14T17:20:44.790Z,4.40
2023-05-14T17:23:11.034Z,5.47
2023-05-14T17:25:37.343Z,7.57
2023-05-14T17:28:03.688Z,5.27
2023-05-14T17:30:29.956Z,5.47
2023-05-14T17:32:56.320Z,7.43
2023-05-14T17:35:22.905Z,5.10
2023-05-14T17:37:49.422Z,5.33
2023-05-14T17:40:15.911Z,6.73
2023-05-14T17:42:42.252Z,4.37
2023-05-14T17:45:08.710Z,5.67
2023-05-14T17:47:34.991Z,6.50
2023-05-14T17:50:01.332Z,6.20
2023-05-14T17:52:27.595Z,8.70
2023-05-14T17:54:53.834Z,4.70
2023-05-14T17:57:20.147Z,4.93
2023-05-14T17:59:46.396Z,6.53
2023-05-14T18:02:12.613Z,5.13
2023-05-14T18:04:38.950Z,6.97
2023-05-14T18:07:05.302Z,7.90
2023-05-14T18:09:31.741Z,7.50
2023-05-14T18:11:57.974Z,7.77
2023-05-14T18:14:24.275Z,6.03
2023-05-14T18:16:51.211Z,7.60
2023-05-14T18:19:17.551Z,6.30
2023-05-14T18:21:46.579Z,6.07
2023-05-14T18:24:13.529Z,4.50
2023-05-14T18:26:39.869Z,7.07
2023-05-14T18:29:06.101Z,6.37
2023-05-14T18:31:32.515Z,7.67
2023-05-14T18:33:58.915Z,5.40
2023-05-14T18:36:25.284Z,6.83
2023-05-14T18:38:51.556Z,4.93
2023-05-14T18:41:17.787Z,6.70
2023-05-14T18:43:44.107Z,4.40
2023-05-14T18:46:12.177Z,5.60
2023-05-14T18:48:38.545Z,4.30
2023-05-14T18:51:05.568Z,6.80
2023-05-14T18:53:37.038Z,4.53
2023-05-14T18:56:03.446Z,5.33
2023-05-14T18:58:29.698Z,8.47
2023-05-14T19:00:58.428Z,6.10
2023-05-14T19:03:25.036Z,6.37
2023-05-14T19:05:53.076Z,8.37
2023-05-14T19:08:19.386Z,6.87
2023-05-14T19:10:45.712Z,5.23
2023-05-14T19:13:12.066Z,6.63
2023-05-14T19:15:38.345Z,6.13
2023-05-14T19:18:04.827Z,7.60
2023-05-14T19:20:31.186Z,6.57
2023-05-14T19:22:57.458Z,9.57
2023-05-14T19:25:23.835Z,8.17
2023-05-14T19:27:51.106Z,8.43
2023-05-14T19:30:17.836Z,10.43
2023-05-14T19:32:44.262Z,6.37
2023-05-14T19:35:11.452Z,8.63
2023-05-14T19:37:37.778Z,10.07
2023-05-14T19:40:04.228Z,10.03
2023-05-14T19:42:31.681Z,8.67
2023-05-14T19:44:58.026Z,9.10
2023-05-14T19:47:24.337Z,7.30
2023-05-14T19:49:50.580Z,7.63
2023-05-14T19:52:16.818Z,9.27
2023-05-14T19:54:43.086Z,8.47
2023-05-14T19:57:09.406Z,8.00
2023-05-14T19:59:35.739Z,8.30
2023-05-14T20:02:02.189Z,9.27
2023-05-14T20:04:28.587Z,10.90
2023-05-14T20:06:54.883Z,9.00
2023-05-14T20:09:21.198Z,8.90
2023-05-14T20:11:47.433Z,10.27
2023-05-14T20:14:14.150Z,8.57
2023-05-14T20:16:41.626Z,9.90
2023-05-14T20:19:08.012Z,9.73
2023-05-14T20:21:34.321Z,8.70
2023-05-14T20:24:00.609Z,11.93
2023-05-14T20:26:26.948Z,8.67
2023-05-14T20:28:53.792Z,13.97
2023-05-14T20:31:21.373Z,14.97
2023-05-14T20:33:47.733Z,8.57
2023-05-14T20:36:14.215Z,11.27
2023-05-14T20:38:40.768Z,10.30
2023-05-14T20:41:07.831Z,12.90
2023-05-14T20:43:34.078Z,12.13
2023-05-14T20:46:00.774Z,11.27
2023-05-14T20:48:27.142Z,12.43
2023-05-14T20:50:53.424Z,13.60
2023-05-14T20:53:19.722Z,11.60
2023-05-14T20:55:45.969Z,10.07
2023-05-14T20:58:12.200Z,9.43
2023-05-14T21:00:39.224Z,9.60
2023-05-14T21:03:05.613Z,12.70
2023-05-14T21:05:32.277Z,8.93
2023-05-14T21:07:58.557Z,13.00
2023-05-14T21:10:25.595Z,13.40
2023-05-14T21:12:52.377Z,16.07
2023-05-14T21:15:18.638Z,12.30
2023-05-14T21:17:44.983Z,11.53
2023-05-14T21:20:13.338Z,12.40
2023-05-14T21:22:39.559Z,12.13
2023-05-14T21:25:05.915Z,11.90
2023-05-14T21:27:32.156Z,12.80
2023-05-14T21:29:58.421Z,10.23
2023-05-14T21:32:24.737Z,14.40
2023-05-14T21:34:51.026Z,14.23
2023-05-14T21:37:17.921Z,11.70
2023-05-14T21:39:44.258Z,13.20
2023-05-14T21:42:10.555Z,11.83
2023-05-14T21:44:36.792Z,12.47
2023-05-14T21:47:03.511Z,14.77
2023-05-14T21:49:29.829Z,13.37
2023-05-14T21:51:56.080Z,10.80
2023-05-14T21:54:22.343Z,11.60
2023-05-14T21:56:48.669Z,11.27
2023-05-14T21:59:14.991Z,14.13
2023-05-14T22:01:56.039Z,13.73
2023-05-14T22:04:27.517Z,11.67
2023-05-14T22:06:53.764Z,13.67
2023-05-14T22:09:20.031Z,10.27
2023-05-14T22:11:46.336Z,10.57
2023-05-14T22:14:12.575Z,12.47
2023-05-14T22:16:38.866Z,10.23
2023-05-14T22:19:06.731Z,13.10
2023-05-14T22:21:33.121Z,11.47
2023-05-14T22:23:59.450Z,9.80
2023-05-14T22:26:25.747Z,9.67
2023-05-14T22:28:52.544Z,11.83
2023-05-14T22:31:18.939Z,14.03
2023-05-14T22:33:45.431Z,11.20
2023-05-14T22:36:11.758Z,12.37
2023-05-14T22:38:38.335Z,10.97
2023-05-14T22:41:04.637Z,13.43
2023-05-14T22:43:30.992Z,12.07
2023-05-14T22:45:57.993Z,10.70
2023-05-14T22:48:24.290Z,12.60
2023-05-14T22:50:51.789Z,17.40
2023-05-14T22:53:18.102Z,11.60
2023-05-14T22:55:44.356Z,12.33
2023-05-14T22:58:10.641Z,12.33
2023-05-14T23:22:42.093Z,13.83
2023-05-14T23:25:08.631Z,14.03
2023-05-14T23:27:35.038Z,12.10
2023-05-14T23:30:01.499Z,11.03
2023-05-14T23:32:27.800Z,14.20
2023-05-14T23:34:54.121Z,12.40
2023-05-14T23:37:20.431Z,11.23
2023-05-14T23:39:46.876Z,13.00
2023-05-14T23:42:13.105Z,11.43
2023-05-14T23:44:39.333Z,11.63
2023-05-14T23:47:05.804Z,13.03
2023-05-14T23:49:32.098Z,11.10
2023-05-14T23:51:58.399Z,13.70
2023-05-14T23:54:24.642Z,13.37
2023-05-14T23:56:52.346Z,13.70
2023-05-14T23:59:18.623Z,13.03
